createdAt,value
2023-02-11T00:02:18.683Z,103190.78
2023-02-11T00:04:45.501Z,103177.09
2023-02-11T00:07:12.357Z,103187.97
2023-02-11T00:09:39.235Z,103183.75
2023-02-11T00:12:06.224Z,103188.53
2023-02-11T00:14:33.079Z,103183.00
2023-02-11T00:16:59.941Z,103187.44
2023-02-11T00:19:27.097Z,103187.13
2023-02-11T00:21:54.088Z,103189.66
2023-02-11T00:24:20.927Z,103186.22
2023-02-11T00:26:47.652Z,103179.75
2023-02-11T00:29:14.831Z,103172.16
2023-02-11T00:31:42.089Z,103195.53
2023-02-11T00:34:09.059Z,103198.78
2023-02-11T00:36:36.015Z,103199.28
2023-02-11T00:39:04.022Z,103189.66
2023-02-11T00:41:31.291Z,103186.28
2023-02-11T00:43:59.611Z,103168.63
2023-02-11T00:46:26.537Z,103184.41
2023-02-11T00:48:57.641Z,103180.34
2023-02-11T00:51:25.729Z,103172.38
2023-02-11T00:53:52.717Z,103153.34
2023-02-11T00:56:19.735Z,103139.38
2023-02-11T00:58:46.704Z,103134.97
2023-02-11T01:01:14.223Z,103140.16
2023-02-11T01:03:43.501Z,103132.22
2023-02-11T01:06:11.373Z,103139.31
2023-02-11T01:08:39.099Z,103152.19
2023-02-11T01:11:08.541Z,103144.22
2023-02-11T01:13:40.823Z,103145.03
2023-02-11T01:16:08.935Z,103139.66
2023-02-11T01:18:36.503Z,103150.22
2023-02-11T01:21:03.641Z,103146.41
2023-02-11T01:23:30.785Z,103148.72
2023-02-11T01:25:57.662Z,103144.22
2023-02-11T01:28:26.383Z,103139.78
2023-02-11T01:30:54.135Z,103151.25
2023-02-11T01:33:31.421Z,103155.16
2023-02-11T01:36:04.330Z,103158.25
2023-02-11T01:38:32.697Z,103161.25
2023-02-11T01:41:02.603Z,103166.75
2023-02-11T01:43:36.880Z,103164.22
2023-02-11T01:46:31.694Z,103163.72
2023-02-11T01:49:06.639Z,103173.81
2023-02-11T01:51:41.182Z,103170.19
2023-02-11T01:54:28.784Z,103173.88
2023-02-11T01:57:15.796Z,103173.69
2023-02-11T02:00:12.077Z,103186.09
2023-02-11T02:02:47.379Z,103186.28
2023-02-11T02:05:58.246Z,103173.72
2023-02-11T02:08:42.400Z,103157.06
2023-02-11T02:11:09.539Z,103160.09
2023-02-11T02:13:37.642Z,103172.28
2023-02-11T02:16:09.794Z,103165.88
2023-02-11T02:18:42.157Z,103162.84
2023-02-11T02:21:28.199Z,103157.56
2023-02-11T02:24:14.780Z,103162.06
2023-02-11T02:27:09.672Z,103147.56
2023-02-11T02:29:39.522Z,103155.38
2023-02-11T02:32:44.282Z,103154.34
2023-02-11T02:35:23.833Z,103138.50
2023-02-11T02:38:09.539Z,103147.66
2023-02-11T02:40:56.996Z,103144.63
2023-02-11T02:43:26.540Z,103145.81
2023-02-11T02:45:54.113Z,103150.56
2023-02-11T02:48:29.386Z,103148.09
2023-02-11T02:51:02.179Z,103152.34
2023-02-11T02:53:55.411Z,103142.69
2023-02-11T02:56:41.334Z,103141.34
2023-02-11T02:59:14.550Z,103149.06
2023-02-11T03:01:50.681Z,103152.59
2023-02-11T03:04:23.162Z,103143.75
2023-02-11T03:06:59.207Z,103147.00
2023-02-11T03:09:51.890Z,103143.03
2023-02-11T03:12:20.035Z,103139.88
2023-02-11T03:14:47.351Z,103140.84
2023-02-11T03:17:14.626Z,103128.94
2023-02-11T03:19:44.606Z,103127.16
2023-02-11T03:22:17.689Z,103127.06
2023-02-11T03:24:45.649Z,103123.31
2023-02-11T03:27:24.537Z,103121.69
2023-02-11T03:30:25.180Z,103123.88
2023-02-11T03:32:57.555Z,103123.97
2023-02-11T03:35:28.874Z,103112.16
2023-02-11T03:37:58.724Z,103122.50
2023-02-11T03:40:32.047Z,103123.31
2023-02-11T03:43:09.041Z,103117.25
2023-02-11T03:45:37.126Z,103108.91
2023-02-11T03:48:16.836Z,103112.19
2023-02-11T03:50:44.575Z,103120.47
2023-02-11T03:53:13.254Z,103134.84
2023-02-11T03:55:40.847Z,103131.63
2023-02-11T03:58:07.870Z,103125.41
2023-02-11T04:00:37.482Z,103123.09
2023-02-11T04:03:04.794Z,103126.16
2023-02-11T04:05:32.602Z,103121.13
2023-02-11T04:07:59.440Z,103124.59
2023-02-11T04:10:26.642Z,103139.34
2023-02-11T04:12:53.519Z,103128.53
2023-02-11T04:15:23.277Z,103127.28
2023-02-11T04:17:50.394Z,103130.81
2023-02-11T04:20:17.287Z,103128.25
2023-02-11T04:22:43.954Z,103135.09
2023-02-11T04:25:11.054Z,103137.56
2023-02-11T04:27:38.471Z,103133.41
2023-02-11T04:30:06.481Z,103137.56
2023-02-11T04:32:33.362Z,103137.72
2023-02-11T04:35:00.475Z,103134.34
2023-02-11T04:37:27.364Z,103141.69
2023-02-11T04:39:54.961Z,103135.75
2023-02-11T04:42:22.114Z,103139.63
2023-02-11T04:44:48.829Z,103145.56
2023-02-11T04:47:15.607Z,103138.69
2023-02-11T04:49:42.734Z,103124.41
2023-02-11T04:52:09.525Z,103132.72
2023-02-11T04:54:36.426Z,103122.97
2023-02-11T04:57:03.276Z,103128.34
2023-02-11T04:59:30.004Z,103124.53
2023-02-11T05:01:57.210Z,103127.28
2023-02-11T05:04:24.119Z,103120.00
2023-02-11T05:06:51.198Z,103116.97
2023-02-11T05:09:17.941Z,103100.19
2023-02-11T05:11:44.654Z,103112.97
2023-02-11T05:14:11.383Z,103117.47
2023-02-11T05:16:38.369Z,103111.50
2023-02-11T05:19:06.048Z,103114.34
2023-02-11T05:21:32.886Z,103122.63
2023-02-11T05:23:59.921Z,103105.94
2023-02-11T05:26:26.794Z,103106.78
2023-02-11T05:28:53.625Z,103098.72
2023-02-11T05:31:20.865Z,103087.72
2023-02-11T05:33:47.750Z,103094.19
2023-02-11T05:36:14.589Z,103096.53
2023-02-11T05:38:42.767Z,103084.53
2023-02-11T05:41:10.455Z,103095.28
2023-02-11T05:43:37.724Z,103091.09
2023-02-11T05:46:04.884Z,103089.78
2023-02-11T05:48:32.438Z,103094.69
2023-02-11T05:50:59.288Z,103097.63
2023-02-11T05:53:26.247Z,103100.69
2023-02-11T05:55:53.480Z,103107.38
2023-02-11T05:58:20.958Z,103112.38
2023-02-11T06:00:47.922Z,103111.94
2023-02-11T06:03:15.116Z,103105.97
2023-02-11T06:05:44.022Z,103111.44
2023-02-11T06:08:10.859Z,103106.22
2023-02-11T06:10:38.172Z,103112.31
2023-02-11T06:13:04.989Z,103112.75
2023-02-11T06:15:31.785Z,103107.72
2023-02-11T06:17:58.547Z,103101.69
2023-02-11T06:20:25.294Z,103092.22
2023-02-11T06:22:57.341Z,103094.63
2023-02-11T06:25:24.049Z,103091.38
2023-02-11T06:27:51.187Z,103093.81
2023-02-11T06:30:18.352Z,103094.88
2023-02-11T06:32:46.060Z,103101.16
2023-02-11T06:35:14.582Z,103083.56
2023-02-11T06:37:42.024Z,103091.84
2023-02-11T06:40:10.969Z,103103.94
2023-02-11T06:42:39.390Z,103110.94
2023-02-11T06:45:09.139Z,103117.91
2023-02-11T06:47:36.720Z,103112.50
2023-02-11T06:50:03.994Z,103115.78
2023-02-11T06:52:30.735Z,103101.69
2023-02-11T06:54:57.533Z,103111.91
2023-02-11T06:57:24.436Z,103108.06
2023-02-11T06:59:51.610Z,103110.44
2023-02-11T07:02:20.802Z,103105.72
2023-02-11T07:04:47.953Z,103098.88
2023-02-11T07:07:14.732Z,103104.50
2023-02-11T07:09:42.607Z,103101.41
2023-02-11T07:12:10.517Z,103100.28
2023-02-11T07:14:37.536Z,103106.28
2023-02-11T07:17:04.893Z,103107.75
2023-02-11T07:19:32.470Z,103103.22
2023-02-11T07:21:59.383Z,103110.38
2023-02-11T07:24:31.800Z,103113.41
2023-02-11T07:26:59.016Z,103115.44
2023-02-11T07:29:25.802Z,103118.88
2023-02-11T07:31:52.750Z,103121.44
2023-02-11T07:34:19.794Z,103127.59
2023-02-11T07:36:46.998Z,103136.50
2023-02-11T07:39:13.830Z,103133.59
2023-02-11T07:41:41.024Z,103121.94
2023-02-11T07:44:07.929Z,103136.00
2023-02-11T07:46:35.764Z,103149.69
2023-02-11T07:49:03.025Z,103157.41
2023-02-11T07:51:31.581Z,103160.72
2023-02-11T07:53:59.920Z,103150.22
2023-02-11T07:56:28.052Z,103150.28
2023-02-11T07:58:55.592Z,103146.38
2023-02-11T08:01:28.330Z,103152.78
2023-02-11T08:03:56.708Z,103167.03
2023-02-11T08:06:25.431Z,103170.94
2023-02-11T08:08:52.528Z,103170.16
2023-02-11T08:11:21.917Z,103160.81
2023-02-11T08:13:49.157Z,103163.13
2023-02-11T08:16:20.773Z,103177.53
2023-02-11T08:18:48.352Z,103173.00
2023-02-11T08:21:15.341Z,103188.53
2023-02-11T08:23:43.616Z,103175.22
2023-02-11T08:26:13.629Z,103191.00
2023-02-11T08:28:42.339Z,103190.63
2023-02-11T08:31:11.815Z,103192.09
2023-02-11T08:33:41.020Z,103183.34
2023-02-11T08:36:12.847Z,103177.09
2023-02-11T08:38:39.854Z,103189.63
2023-02-11T08:41:07.370Z,103183.56
2023-02-11T08:43:35.314Z,103197.97
2023-02-11T08:46:03.287Z,103199.38
2023-02-11T08:48:30.357Z,103188.16
2023-02-11T08:50:57.759Z,103196.59
2023-02-11T08:53:25.590Z,103196.03
2023-02-11T08:55:54.322Z,103200.88
2023-02-11T08:58:22.744Z,103207.56
2023-02-11T09:00:50.657Z,103212.59
2023-02-11T09:03:18.175Z,103211.53
2023-02-11T09:05:47.203Z,103219.38
2023-02-11T09:08:14.473Z,103220.03
2023-02-11T09:10:41.854Z,103226.06
2023-02-11T09:13:08.830Z,103220.13
2023-02-11T09:15:36.000Z,103226.97
2023-02-11T09:18:03.539Z,103215.03
2023-02-11T09:20:31.082Z,103215.06
2023-02-11T09:22:59.301Z,103211.56
2023-02-11T09:25:26.596Z,103224.53
2023-02-11T09:27:53.986Z,103214.75
2023-02-11T09:30:21.427Z,103227.22
2023-02-11T09:32:48.238Z,103219.00
2023-02-11T09:35:15.122Z,103212.25
2023-02-11T09:37:41.882Z,103210.28
2023-02-11T09:40:09.226Z,103217.34
2023-02-11T09:42:49.880Z,103205.31
2023-02-11T09:45:22.993Z,103219.53
2023-02-11T09:47:54.889Z,103229.22
2023-02-11T09:50:52.447Z,103221.19
2023-02-11T09:53:27.354Z,103225.03
2023-02-11T09:55:59.799Z,103224.91
2023-02-11T09:58:35.225Z,103233.84
2023-02-11T10:01:25.489Z,103233.00
2023-02-11T10:04:15.092Z,103234.78
2023-02-11T10:06:47.356Z,103223.91
2023-02-11T10:09:42.293Z,103222.72
2023-02-11T10:12:22.305Z,103226.69
2023-02-11T10:15:04.887Z,103228.25
2023-02-11T10:17:51.479Z,103233.16
2023-02-11T10:20:30.561Z,103238.34
2023-02-11T10:23:15.352Z,103242.25
2023-02-11T10:25:47.430Z,103243.84
2023-02-11T10:28:18.213Z,103244.31
2023-02-11T10:30:57.770Z,103237.84
2023-02-11T10:33:28.646Z,103243.47
2023-02-11T10:35:55.466Z,103247.66
2023-02-11T10:38:22.330Z,103250.53
2023-02-11T10:40:49.557Z,103249.66
2023-02-11T10:43:18.258Z,103261.03
2023-02-11T10:45:49.079Z,103258.00
2023-02-11T10:48:43.188Z,103256.22
2023-02-11T10:51:14.532Z,103249.81
2023-02-11T10:54:14.452Z,103257.41
2023-02-11T10:56:52.165Z,103263.53
2023-02-11T10:59:24.846Z,103268.09
2023-02-11T11:01:54.065Z,103259.66
2023-02-11T11:04:45.200Z,103258.53
2023-02-11T11:07:15.682Z,103255.41
2023-02-11T11:09:51.715Z,103260.88
2023-02-11T11:12:34.750Z,103264.09
2023-02-11T11:15:10.675Z,103253.41
2023-02-11T11:17:38.643Z,103269.63
2023-02-11T11:20:32.286Z,103266.59
2023-02-11T11:23:18.915Z,103266.16
2023-02-11T11:25:58.109Z,103259.28
2023-02-11T11:28:26.918Z,103263.28
2023-02-11T11:30:55.440Z,103264.78
2023-02-11T11:33:36.884Z,103258.72
2023-02-11T11:36:08.521Z,103260.44
2023-02-11T11:38:38.237Z,103262.03
2023-02-11T11:41:26.633Z,103259.34
2023-02-11T11:43:58.957Z,103263.31
2023-02-11T11:46:34.826Z,103261.72
2023-02-11T11:49:36.972Z,103253.56
2023-02-11T11:52:18.437Z,103269.63
2023-02-11T11:54:55.785Z,103259.63
2023-02-11T11:57:27.459Z,103249.00
2023-02-11T11:59:54.690Z,103245.13
2023-02-11T12:02:46.717Z,103249.81
2023-02-11T12:05:26.022Z,103252.53
2023-02-11T12:08:05.140Z,103253.41
2023-02-11T12:10:37.669Z,103254.53
2023-02-11T12:13:20.665Z,103258.84
2023-02-11T12:16:21.759Z,103258.22
2023-02-11T12:19:19.828Z,103268.22
2023-02-11T12:21:56.597Z,103259.75
2023-02-11T12:24:29.736Z,103267.16
2023-02-11T12:27:16.822Z,103268.13
2023-02-11T12:30:00.424Z,103267.75
2023-02-11T12:32:47.367Z,103266.50
2023-02-11T12:35:22.970Z,103268.56
2023-02-11T12:38:34.681Z,103252.59
2023-02-11T12:41:05.104Z,103259.63
2023-02-11T12:43:40.917Z,103263.31
2023-02-11T12:46:41.388Z,103254.56
2023-02-11T12:49:36.508Z,103261.44
2023-02-11T12:52:31.304Z,103268.13
2023-02-11T12:55:04.420Z,103271.84
2023-02-11T12:57:32.971Z,103260.19
2023-02-11T13:00:05.124Z,103269.03
2023-02-11T13:02:54.685Z,103259.88
2023-02-11T13:05:32.156Z,103247.28
2023-02-11T13:08:05.583Z,103241.16
2023-02-11T13:10:37.779Z,103238.44
2023-02-11T13:13:19.042Z,103229.94
2023-02-11T13:15:55.448Z,103241.59
2023-02-11T13:18:37.705Z,103241.16
2023-02-11T13:21:17.097Z,103243.22
2023-02-11T13:24:01.236Z,103248.00
2023-02-11T13:26:51.158Z,103234.47
2023-02-11T13:29:45.474Z,103245.66
2023-02-11T13:32:14.764Z,103241.56
2023-02-11T13:34:41.460Z,103233.91
2023-02-11T13:37:20.621Z,103223.47
2023-02-11T13:40:19.730Z,103230.25
2023-02-11T13:42:58.377Z,103235.13
2023-02-11T13:45:46.683Z,103227.97
2023-02-11T13:48:26.897Z,103238.34
2023-02-11T13:50:56.750Z,103239.16
2023-02-11T13:53:24.211Z,103235.53
2023-02-11T13:55:53.894Z,103231.09
2023-02-11T13:58:26.993Z,103239.84
2023-02-11T14:00:54.619Z,103228.75
2023-02-11T14:03:52.348Z,103231.41
2023-02-11T14:06:43.365Z,103232.59
2023-02-11T14:09:10.617Z,103233.56
2023-02-11T14:11:43.470Z,103234.78
2023-02-11T14:14:36.786Z,103229.09
2023-02-11T14:17:07.033Z,103241.88
2023-02-11T14:19:38.764Z,103235.34
2023-02-11T14:22:17.047Z,103228.41
2023-02-11T14:24:51.369Z,103218.09
2023-02-11T14:27:28.967Z,103222.31
2023-02-11T14:30:11.767Z,103225.00
2023-02-11T14:32:45.779Z,103227.44
2023-02-11T14:35:15.456Z,103227.84
2023-02-11T14:38:02.392Z,103232.13
2023-02-11T14:40:47.063Z,103230.66
2023-02-11T14:43:22.632Z,103230.91
2023-02-11T14:45:52.020Z,103233.91
2023-02-11T14:48:20.549Z,103235.22
2023-02-11T14:51:01.749Z,103225.03
2023-02-11T14:53:31.047Z,103234.44
2023-02-11T14:55:58.351Z,103232.00
2023-02-11T14:58:26.766Z,103230.59
2023-02-11T15:01:37.996Z,103235.81
2023-02-11T15:04:06.852Z,103229.16
2023-02-11T15:06:38.013Z,103233.91
2023-02-11T15:09:29.700Z,103243.03
2023-02-11T15:12:00.908Z,103246.72
2023-02-11T15:14:35.321Z,103242.97
2023-02-11T15:17:07.477Z,103231.75
2023-02-11T15:19:37.172Z,103247.22
2023-02-11T15:22:32.946Z,103245.84
2023-02-11T15:25:09.692Z,103244.59
2023-02-11T15:27:46.095Z,103249.78
2023-02-11T15:30:22.412Z,103250.94
2023-02-11T15:33:00.722Z,103258.28
2023-02-11T15:35:45.753Z,103256.16
2023-02-11T15:38:14.169Z,103261.59
2023-02-11T15:40:41.168Z,103257.50
2023-02-11T15:43:11.004Z,103254.44
2023-02-11T15:46:13.747Z,103254.91
2023-02-11T15:48:51.210Z,103257.53
2023-02-11T15:51:23.418Z,103255.97
2023-02-11T15:53:56.679Z,103253.34
2023-02-11T15:56:30.170Z,103259.56
2023-02-11T15:59:02.263Z,103257.59
2023-02-11T16:01:35.868Z,103257.72
2023-02-11T16:04:03.719Z,103248.88
2023-02-11T16:06:43.008Z,103259.88
2023-02-11T16:09:11.140Z,103258.16
2023-02-11T16:11:57.397Z,103260.38
2023-02-11T16:14:34.772Z,103265.56
2023-02-11T16:17:07.872Z,103267.44
2023-02-11T16:19:36.278Z,103263.59
2023-02-11T16:22:11.632Z,103268.13
2023-02-11T16:24:40.130Z,103268.00
2023-02-11T16:27:40.889Z,103264.09
2023-02-11T16:30:23.572Z,103258.69
2023-02-11T16:33:05.680Z,103264.06
2023-02-11T16:35:38.293Z,103257.59
2023-02-11T16:38:15.515Z,103267.31
2023-02-11T16:40:59.051Z,103266.50
2023-02-11T16:43:27.244Z,103272.38
2023-02-11T16:45:56.338Z,103281.91
2023-02-11T16:48:26.468Z,103274.47
2023-02-11T16:50:53.879Z,103284.59
2023-02-11T16:53:27.591Z,103281.72
2023-02-11T16:55:55.189Z,103280.03
2023-02-11T16:58:31.098Z,103280.94
2023-02-11T17:00:58.206Z,103277.91
2023-02-11T17:03:29.529Z,103279.78
2023-02-11T17:05:58.682Z,103279.94
2023-02-11T17:08:26.054Z,103279.53
2023-02-11T17:10:53.871Z,103283.59
2023-02-11T17:13:22.150Z,103282.59
2023-02-11T17:15:50.157Z,103287.78
2023-02-11T17:18:17.532Z,103279.38
2023-02-11T17:20:47.656Z,103296.81
2023-02-11T17:23:14.852Z,103290.56
2023-02-11T17:25:41.794Z,103293.63
2023-02-11T17:28:12.266Z,103298.50
2023-02-11T17:30:41.532Z,103305.47
2023-02-11T17:33:09.639Z,103311.16
2023-02-11T17:35:39.570Z,103296.22
2023-02-11T17:38:06.459Z,103303.44
2023-02-11T17:40:36.687Z,103306.56
2023-02-11T17:43:05.177Z,103304.09
2023-02-11T17:45:34.068Z,103310.47
2023-02-11T17:48:03.944Z,103315.31
2023-02-11T17:50:31.931Z,103315.28
2023-02-11T17:52:59.145Z,103320.94
2023-02-11T17:55:26.386Z,103316.03
2023-02-11T17:57:53.353Z,103322.44
2023-02-11T18:00:21.083Z,103319.06
2023-02-11T18:02:48.580Z,103323.00
2023-02-11T18:05:17.101Z,103321.56
2023-02-11T18:07:54.923Z,103323.84
2023-02-11T18:10:23.091Z,103345.63
2023-02-11T18:12:54.270Z,103334.03
2023-02-11T18:15:22.543Z,103349.28
2023-02-11T18:17:49.406Z,103337.44
2023-02-11T18:20:16.314Z,103347.94
2023-02-11T18:22:44.306Z,103343.03
2023-02-11T18:25:14.225Z,103345.66
2023-02-11T18:27:41.560Z,103346.06
2023-02-11T18:30:11.706Z,103343.84
2023-02-11T18:32:38.609Z,103346.56
2023-02-11T18:35:08.835Z,103347.47
2023-02-11T18:37:35.741Z,103354.13
2023-02-11T18:40:02.857Z,103362.44
2023-02-11T18:42:29.997Z,103347.22
2023-02-11T18:44:57.302Z,103357.72
2023-02-11T18:47:24.457Z,103353.88
2023-02-11T18:49:52.016Z,103358.38
2023-02-11T18:52:20.604Z,103351.00
2023-02-11T18:54:50.406Z,103351.41
2023-02-11T18:57:19.801Z,103354.34
2023-02-11T18:59:46.852Z,103359.69
2023-02-11T19:02:14.062Z,103361.44
2023-02-11T19:04:41.400Z,103366.84
2023-02-11T19:07:08.926Z,103368.69
2023-02-11T19:09:36.721Z,103373.03
2023-02-11T19:12:04.970Z,103376.75
2023-02-11T19:14:38.150Z,103385.88
2023-02-11T19:17:07.379Z,103377.47
2023-02-11T19:19:37.501Z,103384.66
2023-02-11T19:22:09.946Z,103389.28
2023-02-11T19:24:38.158Z,103383.28
2023-02-11T19:27:08.063Z,103374.09
2023-02-11T19:29:35.708Z,103381.91
2023-02-11T19:32:04.945Z,103379.78
2023-02-11T19:34:35.918Z,103374.97
2023-02-11T19:37:05.025Z,103376.09
2023-02-11T19:39:34.915Z,103379.47
2023-02-11T19:42:02.975Z,103377.50
2023-02-11T19:44:30.925Z,103385.41
2023-02-11T19:47:00.488Z,103391.22
2023-02-11T19:49:33.882Z,103389.47
2023-02-11T19:52:06.599Z,103391.88
2023-02-11T19:54:34.456Z,103386.94
2023-02-11T19:57:02.024Z,103389.38
2023-02-11T19:59:29.646Z,103390.19
2023-02-11T20:02:09.326Z,103387.81
2023-02-11T20:04:36.798Z,103390.56
2023-02-11T20:07:03.927Z,103389.13
2023-02-11T20:09:31.926Z,103386.78
2023-02-11T20:11:59.667Z,103391.84
2023-02-11T20:14:28.112Z,103389.94
2023-02-11T20:16:55.788Z,103391.84
2023-02-11T20:19:23.078Z,103393.50
2023-02-11T20:21:56.160Z,103399.91
2023-02-11T20:24:24.003Z,103397.56
2023-02-11T20:26:55.620Z,103397.06
2023-02-11T20:29:24.313Z,103390.88
2023-02-11T20:31:51.442Z,103396.97
2023-02-11T20:34:19.285Z,103404.66
2023-02-11T20:37:13.662Z,103409.81
2023-02-11T20:39:41.121Z,103404.78
2023-02-11T20:42:15.401Z,103407.50
2023-02-11T20:44:43.564Z,103407.22
2023-02-11T20:47:10.672Z,103405.59
2023-02-11T20:49:37.964Z,103407.34
2023-02-11T20:52:06.092Z,103421.25
2023-02-11T20:54:43.500Z,103425.94
2023-02-11T20:57:11.067Z,103416.75
2023-02-11T20:59:38.979Z,103423.19
2023-02-11T21:02:06.259Z,103420.34
2023-02-11T21:04:34.357Z,103433.13
2023-02-11T21:07:04.865Z,103433.47
2023-02-11T21:09:33.360Z,103440.53
2023-02-11T21:12:12.823Z,103436.19
2023-02-11T21:14:39.846Z,103434.50
2023-02-11T21:17:07.972Z,103436.63
2023-02-11T21:19:38.883Z,103443.72
2023-02-11T21:22:06.237Z,103442.66
2023-02-11T21:24:33.575Z,103440.78
2023-02-11T21:27:03.419Z,103427.16
2023-02-11T21:29:30.537Z,103442.75
2023-02-11T21:31:57.479Z,103439.94
2023-02-11T21:34:24.506Z,103441.94
2023-02-11T21:36:53.038Z,103440.03
2023-02-11T21:39:20.480Z,103456.06
2023-02-11T21:41:47.498Z,103454.47
2023-02-11T21:44:14.642Z,103454.94
2023-02-11T21:46:47.962Z,103454.94
2023-02-11T21:49:19.805Z,103458.22
2023-02-11T21:51:47.044Z,103450.56
2023-02-11T21:54:15.932Z,103439.94
2023-02-11T21:56:43.378Z,103455.91
2023-02-11T21:59:14.235Z,103453.22
2023-02-11T22:01:41.449Z,103454.81
2023-02-11T22:04:09.159Z,103463.06
2023-02-11T22:06:36.708Z,103450.59
2023-02-11T22:09:08.371Z,103447.03
2023-02-11T22:11:37.430Z,103457.03
2023-02-11T22:14:06.322Z,103447.88
2023-02-11T22:16:36.074Z,103450.25
2023-02-11T22:19:03.229Z,103456.38
2023-02-11T22:21:30.778Z,103456.16
2023-02-11T22:23:59.823Z,103452.75
2023-02-11T22:26:27.851Z,103455.06
2023-02-11T22:29:15.676Z,103457.09
2023-02-11T22:31:46.111Z,103456.25
2023-02-11T22:34:13.441Z,103462.91
2023-02-11T22:36:46.023Z,103455.19
2023-02-11T22:39:19.641Z,103447.78
2023-02-11T22:41:52.743Z,103453.78
2023-02-11T22:44:31.832Z,103443.16
2023-02-11T22:47:02.532Z,103438.56
2023-02-11T22:49:32.801Z,103437.88
2023-02-11T22:52:07.626Z,103451.88
2023-02-11T22:54:42.502Z,103450.22
2023-02-11T22:57:18.324Z,103443.97
2023-02-11T22:59:48.138Z,103449.66
2023-02-11T23:02:15.612Z,103455.22
2023-02-11T23:04:43.807Z,103454.47
2023-02-11T23:07:11.026Z,103464.34
2023-02-11T23:09:39.737Z,103464.38
2023-02-11T23:12:07.569Z,103465.13
2023-02-11T23:14:36.201Z,103462.53
2023-02-11T23:17:05.753Z,103471.59
2023-02-11T23:19:33.733Z,103472.66
2023-02-11T23:22:01.528Z,103472.31
2023-02-11T23:24:28.961Z,103468.78
2023-02-11T23:26:56.105Z,103463.81
2023-02-11T23:29:22.968Z,103473.38
2023-02-11T23:32:11.212Z,103476.03
2023-02-11T23:34:38.636Z,103472.78
2023-02-11T23:37:06.616Z,103480.22
2023-02-11T23:39:33.481Z,103474.78
2023-02-11T23:42:02.352Z,103477.97
2023-02-11T23:44:29.766Z,103484.03
2023-02-11T23:46:57.285Z,103461.09
2023-02-11T23:49:24.564Z,103479.09
2023-02-11T23:51:52.548Z,103475.38
2023-02-11T23:54:20.447Z,103477.16
2023-02-11T23:56:48.608Z,103475.25
2023-02-11T23:59:15.538Z,103474.22
